Time;durP1;ratioP1;P1;durP2;ratioP2;P2;SDS_P1;SDS_P2;PMS_P1;PMS_P2;Temp;Humidity;BMP_temperature;BMP_pressure;BME280_temperature;BME280_humidity;BME280_pressure;Samples;Min_cycle;Max_cycle;Signal;HPM_P1;HPM_P2
2022/10/03 00:02:30;;;;;;;;;;;11.20;99.90;;;;;;5045062;28;19920;-73
2022/10/03 00:05:02;;;;;;;;;;;11.20;99.90;;;;;;5044685;28;20234;-73
2022/10/03 00:07:45;;;;;;;;;;;11.20;99.90;;;;;;5044595;28;20204;-73
2022/10/03 00:10:17;;;;;;;;;;;11.20;99.90;;;;;;5044704;28;19921;-73
2022/10/03 00:12:52;;;;;;;;;;;11.10;99.90;;;;;;5044702;28;19921;-74
2022/10/03 00:15:25;;;;;;;;;;;11.10;99.90;;;;;;5044583;28;19921;-73
2022/10/03 00:17:58;;;;;;;;;;;11.10;99.90;;;;;;5044672;28;19921;-73
2022/10/03 00:20:55;;;;;;;;;;;11.20;99.90;;;;;;5044429;28;19928;-73
2022/10/03 00:23:24;;;;;;;;;;;11.20;99.90;;;;;;4964202;28;19990;-73
2022/10/03 00:25:55;;;;;;;;;;;11.10;99.90;;;;;;5026456;28;19951;-73
2022/10/03 00:28:27;;;;;;;;;;;11.10;99.90;;;;;;5044332;28;20131;-73
2022/10/03 00:31:06;;;;;;;;;;;11.10;99.90;;;;;;5044070;28;20093;-73
2022/10/03 00:33:39;;;;;;;;;;;11.10;99.90;;;;;;5044428;28;19921;-73
2022/10/03 00:36:07;;;;;;;;;;;11.10;99.90;;;;;;5044212;28;19921;-73
2022/10/03 00:38:45;;;;;;;;;;;11.10;99.90;;;;;;5043822;28;20181;-73
2022/10/03 00:41:31;;;;;;;;;;;11.10;99.90;;;;;;5044317;28;19921;-73
2022/10/03 00:44:17;;;;;;;;;;;11.20;99.90;;;;;;5044224;28;19921;-73
2022/10/03 00:46:54;;;;;;;;;;;11.10;99.90;;;;;;5043652;28;19963;-73
2022/10/03 00:49:31;;;;;;;;;;;11.10;99.90;;;;;;5044145;28;19921;-73
2022/10/03 00:52:06;;;;;;;;;;;11.20;99.90;;;;;;5044126;28;19928;-73
2022/10/03 00:54:41;;;;;;;;;;;11.20;99.90;;;;;;5043972;28;19921;-73
2022/10/03 00:57:18;;;;;;;;;;;11.20;99.90;;;;;;5044125;28;19921;-73
2022/10/03 00:59:54;;;;;;;;;;;11.20;99.90;;;;;;5043951;28;20209;-73
2022/10/03 01:02:27;;;;;;;;;;;11.10;99.90;;;;;;5044016;28;19984;-73
2022/10/03 01:04:57;;;;;;;;;;;11.10;99.90;;;;;;5043831;28;19921;-73
2022/10/03 01:07:32;;;;;;;;;;;11.10;99.90;;;;;;5043983;28;19921;-73
2022/10/03 01:10:08;;;;;;;;;;;11.10;99.90;;;;;;5043683;28;19956;-73
2022/10/03 01:12:43;;;;;;;;;;;11.10;99.90;;;;;;5043884;28;19921;-73
2022/10/03 01:15:14;;;;;;;;;;;11.10;99.90;;;;;;5043708;28;19921;-73
2022/10/03 01:17:48;;;;;;;;;;;11.10;99.90;;;;;;5044024;28;19957;-73
2022/10/03 01:20:30;;;;;;;;;;;11.10;99.90;;;;;;5043511;28;19921;-73
2022/10/03 01:23:14;;;;;;;;;;;11.20;99.90;;;;;;5043455;28;19928;-73
2022/10/03 01:25:47;;;;;;;;;;;11.20;99.90;;;;;;5043097;28;19921;-73
2022/10/03 01:31:11;;;;;;;;;;;11.10;99.90;;;;;;5031204;28;19928;-73
2022/10/03 01:33:40;;;;;;;;;;;11.10;99.90;;;;;;5038136;28;20085;-73
2022/10/03 01:36:10;;;;;;;;;;;11.10;99.90;;;;;;5043446;28;19980;-73
2022/10/03 01:38:41;;;;;;;;;;;11.10;99.90;;;;;;5023891;28;19928;-73
2022/10/03 01:41:11;;;;;;;;;;;11.10;99.90;;;;;;5023917;28;19921;-72
2022/10/03 01:43:42;;;;;;;;;;;11.10;99.90;;;;;;5031933;28;20008;-72
2022/10/03 01:46:15;;;;;;;;;;;11.00;99.90;;;;;;5031012;28;20181;-73
2022/10/03 01:48:47;;;;;;;;;;;11.00;99.90;;;;;;5023878;28;19922;-73
2022/10/03 01:51:16;;;;;;;;;;;11.10;99.90;;;;;;5026703;28;19928;-72
2022/10/03 01:53:48;;;;;;;;;;;11.10;99.90;;;;;;5027621;28;19928;-73
2022/10/03 01:56:18;;;;;;;;;;;11.00;99.90;;;;;;5027412;28;19944;-73
2022/10/03 01:58:55;;;;;;;;;;;11.00;99.90;;;;;;5027554;28;20116;-72
2022/10/03 02:01:26;;;;;;;;;;;11.00;99.90;;;;;;5041915;28;19921;-73
2022/10/03 02:03:54;;;;;;;;;;;11.00;99.90;;;;;;5046797;28;19984;-73
2022/10/03 02:06:25;;;;;;;;;;;11.00;99.90;;;;;;5046846;28;19921;-73
2022/10/03 02:08:55;;;;;;;;;;;11.00;99.90;;;;;;5046940;28;19928;-73
2022/10/03 02:11:25;;;;;;;;;;;11.00;99.90;;;;;;5046750;28;19928;-72
2022/10/03 02:13:55;;;;;;;;;;;11.00;99.90;;;;;;5046623;28;20336;-73
2022/10/03 02:16:29;;;;;;;;;;;11.00;99.90;;;;;;5046429;28;19920;-73
2022/10/03 02:19:00;;;;;;;;;;;11.00;99.90;;;;;;5046640;28;20306;-73
2022/10/03 02:21:27;;;;;;;;;;;11.00;99.90;;;;;;5046949;28;20107;-73
2022/10/03 02:24:06;;;;;;;;;;;11.00;99.90;;;;;;5046688;28;19921;-73
2022/10/03 02:26:51;;;;;;;;;;;11.00;99.90;;;;;;5046360;28;19943;-73
2022/10/03 02:29:27;;;;;;;;;;;11.00;99.90;;;;;;5041704;28;19921;-73
2022/10/03 02:32:20;;;;;;;;;;;11.00;99.90;;;;;;5046763;28;19928;-73
2022/10/03 02:35:04;;;;;;;;;;;11.00;99.90;;;;;;5021760;28;20403;-74
2022/10/03 02:37:49;;;;;;;;;;;10.90;99.90;;;;;;5046557;28;19953;-74
2022/10/03 02:40:47;;;;;;;;;;;11.00;99.90;;;;;;5046559;28;19921;-73
2022/10/03 02:43:30;;;;;;;;;;;10.90;99.90;;;;;;4985485;28;19957;-73
2022/10/03 02:46:07;;;;;;;;;;;10.90;99.90;;;;;;5039000;28;19924;-73
2022/10/03 02:48:54;;;;;;;;;;;10.90;99.90;;;;;;5046406;28;19984;-73
2022/10/03 02:51:33;;;;;;;;;;;10.90;99.90;;;;;;5046002;28;19927;-73
2022/10/03 02:54:15;;;;;;;;;;;10.90;99.90;;;;;;5046329;28;19927;-73
2022/10/03 02:56:48;;;;;;;;;;;10.90;99.90;;;;;;5045708;28;19959;-73
2022/10/03 02:59:40;;;;;;;;;;;11.00;99.90;;;;;;5046214;28;19921;-73
2022/10/03 03:02:25;;;;;;;;;;;11.00;99.90;;;;;;5031058;28;19964;-73
2022/10/03 03:05:04;;;;;;;;;;;11.00;99.90;;;;;;5035317;28;19921;-73
2022/10/03 03:07:37;;;;;;;;;;;11.00;99.90;;;;;;5046139;28;19925;-73
2022/10/03 03:10:12;;;;;;;;;;;11.00;99.90;;;;;;5045633;28;19971;-73
2022/10/03 03:12:58;;;;;;;;;;;11.00;99.90;;;;;;5045962;28;19921;-73
2022/10/03 03:15:45;;;;;;;;;;;10.90;99.90;;;;;;5045610;28;19943;-73
2022/10/03 03:18:19;;;;;;;;;;;10.90;99.90;;;;;;5045859;28;20107;-73
2022/10/03 03:21:01;;;;;;;;;;;10.90;99.90;;;;;;5045595;28;19921;-73
2022/10/03 03:23:36;;;;;;;;;;;10.90;99.90;;;;;;5034581;28;20000;-73
2022/10/03 03:26:17;;;;;;;;;;;10.80;99.90;;;;;;5034327;28;19921;-74
2022/10/03 03:29:13;;;;;;;;;;;10.80;99.90;;;;;;5039848;28;19921;-73
2022/10/03 03:31:44;;;;;;;;;;;10.80;99.90;;;;;;5043477;28;20018;-73
2022/10/03 03:34:14;;;;;;;;;;;10.80;99.90;;;;;;5045433;28;19928;-73
2022/10/03 03:36:53;;;;;;;;;;;10.80;99.90;;;;;;5045096;28;19921;-73
2022/10/03 03:39:29;;;;;;;;;;;10.80;99.90;;;;;;5045149;28;19984;-74
2022/10/03 03:42:02;;;;;;;;;;;10.80;99.90;;;;;;5045382;28;19989;-73
2022/10/03 03:44:56;;;;;;;;;;;10.80;99.90;;;;;;5045257;28;19928;-74
2022/10/03 03:47:31;;;;;;;;;;;10.70;99.90;;;;;;5045485;28;19927;-73
2022/10/03 03:50:11;;;;;;;;;;;10.70;99.90;;;;;;5045638;28;20123;-73
2022/10/03 03:52:50;;;;;;;;;;;10.80;99.90;;;;;;5045043;28;19922;-74
2022/10/03 03:55:26;;;;;;;;;;;10.70;99.90;;;;;;5044884;28;19921;-74
2022/10/03 03:58:05;;;;;;;;;;;10.80;99.90;;;;;;5044623;28;20191;-73
2022/10/03 04:00:37;;;;;;;;;;;10.70;99.90;;;;;;5045126;28;20096;-73
2022/10/03 04:03:12;;;;;;;;;;;10.70;99.90;;;;;;5026764;28;19976;-73
2022/10/03 04:05:46;;;;;;;;;;;10.70;99.90;;;;;;5035675;28;19921;-73
2022/10/03 04:08:20;;;;;;;;;;;10.60;99.90;;;;;;5030935;28;19927;-73
2022/10/03 04:10:53;;;;;;;;;;;10.60;99.90;;;;;;5044884;28;19921;-73
2022/10/03 04:13:28;;;;;;;;;;;10.70;99.90;;;;;;5042090;28;20086;-73
2022/10/03 04:16:10;;;;;;;;;;;10.60;99.90;;;;;;5044501;28;19921;-73
2022/10/03 04:18:58;;;;;;;;;;;10.60;99.90;;;;;;5041184;28;19921;-73
2022/10/03 04:21:32;;;;;;;;;;;10.60;99.90;;;;;;5035472;28;19963;-73
2022/10/03 04:24:08;;;;;;;;;;;10.60;99.90;;;;;;5044670;28;19985;-73
2022/10/03 04:26:47;;;;;;;;;;;10.60;99.90;;;;;;5044069;28;19921;-73
2022/10/03 04:29:31;;;;;;;;;;;10.60;99.90;;;;;;5044539;28;19989;-71
2022/10/03 04:32:06;;;;;;;;;;;10.60;99.90;;;;;;5030768;28;19927;-73
2022/10/03 04:34:38;;;;;;;;;;;10.60;99.90;;;;;;5041254;28;19979;-74
2022/10/03 04:37:23;;;;;;;;;;;10.60;99.90;;;;;;5044158;28;19921;-73
2022/10/03 04:39:58;;;;;;;;;;;10.60;99.90;;;;;;5044348;28;19925;-73
2022/10/03 04:42:39;;;;;;;;;;;10.60;99.90;;;;;;5044416;28;19928;-73
2022/10/03 04:45:17;;;;;;;;;;;10.60;99.90;;;;;;5026946;28;19921;-73
2022/10/03 04:47:48;;;;;;;;;;;10.60;99.90;;;;;;5024418;28;19921;-73
2022/10/03 04:50:24;;;;;;;;;;;10.50;99.90;;;;;;5024392;28;19964;-74
2022/10/03 04:52:56;;;;;;;;;;;10.50;99.90;;;;;;5035914;28;19984;-73
2022/10/03 04:55:27;;;;;;;;;;;10.50;99.90;;;;;;5032280;28;20231;-73
2022/10/03 04:57:56;;;;;;;;;;;10.50;99.90;;;;;;5032259;28;19929;-73
2022/10/03 05:00:27;;;;;;;;;;;10.50;99.90;;;;;;5043446;28;19927;-73
2022/10/03 05:02:57;;;;;;;;;;;10.40;99.90;;;;;;5044034;28;20165;-73
2022/10/03 05:05:27;;;;;;;;;;;10.40;99.90;;;;;;5043562;28;19921;-73
2022/10/03 05:08:00;;;;;;;;;;;10.40;99.90;;;;;;5044029;28;19921;-73
2022/10/03 05:10:30;;;;;;;;;;;10.40;99.90;;;;;;5043860;28;20147;-73
2022/10/03 05:13:02;;;;;;;;;;;10.40;99.90;;;;;;5043810;28;19921;-73
2022/10/03 05:15:32;;;;;;;;;;;10.30;99.90;;;;;;5036065;28;19921;-72
2022/10/03 05:18:02;;;;;;;;;;;10.30;99.90;;;;;;5033788;28;19921;-75
2022/10/03 05:20:41;;;;;;;;;;;10.30;99.90;;;;;;5042908;28;19928;-72
2022/10/03 05:23:17;;;;;;;;;;;10.30;99.90;;;;;;5043544;28;19956;-72
2022/10/03 05:25:52;;;;;;;;;;;10.30;99.90;;;;;;5046652;28;19933;-72
2022/10/03 05:28:25;;;;;;;;;;;10.30;99.90;;;;;;5047016;28;19921;-72
2022/10/03 05:30:56;;;;;;;;;;;10.20;99.90;;;;;;5038839;28;19921;-72
2022/10/03 05:33:27;;;;;;;;;;;10.20;99.90;;;;;;5031160;28;19981;-72
2022/10/03 05:36:04;;;;;;;;;;;10.20;99.90;;;;;;5030010;28;19985;-72
2022/10/03 05:38:41;;;;;;;;;;;10.20;99.90;;;;;;5043062;28;19921;-72
2022/10/03 05:41:11;;;;;;;;;;;10.20;99.90;;;;;;5046541;28;19921;-72
2022/10/03 05:43:46;;;;;;;;;;;10.20;99.90;;;;;;5047194;28;19921;-72
2022/10/03 05:46:19;;;;;;;;;;;10.20;99.90;;;;;;5046745;28;19921;-72
2022/10/03 05:48:47;;;;;;;;;;;10.10;99.90;;;;;;5046712;28;19928;-74
2022/10/03 05:51:22;;;;;;;;;;;10.10;99.90;;;;;;5046603;28;19920;-74
2022/10/03 05:54:01;;;;;;;;;;;10.10;99.90;;;;;;5046624;28;20264;-73
2022/10/03 05:56:37;;;;;;;;;;;10.10;99.90;;;;;;5046165;28;19927;-74
2022/10/03 05:59:18;;;;;;;;;;;10.10;99.90;;;;;;5046449;28;19921;-74
2022/10/03 06:01:58;;;;;;;;;;;10.10;99.90;;;;;;5046712;28;19984;-74
2022/10/03 06:04:37;;;;;;;;;;;10.10;99.90;;;;;;5046198;28;20244;-74
2022/10/03 06:07:14;;;;;;;;;;;10.10;99.90;;;;;;5046127;28;19921;-74
2022/10/03 06:10:03;;;;;;;;;;;10.10;99.90;;;;;;5046183;28;20238;-74
2022/10/03 06:12:35;;;;;;;;;;;10.10;99.90;;;;;;5015844;28;19925;-74
2022/10/03 06:15:13;;;;;;;;;;;10.10;99.90;;;;;;5039093;28;19921;-74
2022/10/03 06:17:54;;;;;;;;;;;10.10;99.90;;;;;;5037066;28;19980;-74
2022/10/03 06:20:45;;;;;;;;;;;10.10;99.90;;;;;;5039030;28;20166;-74
2022/10/03 06:23:21;;;;;;;;;;;10.10;99.90;;;;;;4990602;28;19981;-74
2022/10/03 06:26:10;;;;;;;;;;;10.20;99.90;;;;;;5045350;28;19921;-74
2022/10/03 06:28:56;;;;;;;;;;;10.20;99.90;;;;;;5045997;28;19963;-74
2022/10/03 06:31:40;;;;;;;;;;;10.20;99.90;;;;;;5031281;28;19921;-74
2022/10/03 06:34:18;;;;;;;;;;;10.20;99.90;;;;;;5040615;28;19928;-74
2022/10/03 06:37:00;;;;;;;;;;;10.20;99.90;;;;;;5044450;28;20121;-74
2022/10/03 06:39:44;;;;;;;;;;;10.20;99.90;;;;;;5029175;28;19921;-73
2022/10/03 06:42:28;;;;;;;;;;;10.30;99.90;;;;;;5045683;28;19935;-74
2022/10/03 06:45:11;;;;;;;;;;;10.30;99.90;;;;;;5045476;28;19944;-74
2022/10/03 06:47:50;;;;;;;;;;;10.30;99.90;;;;;;5045627;28;19927;-73
2022/10/03 06:50:35;;;;;;;;;;;10.30;99.90;;;;;;5045494;28;19980;-73
2022/10/03 06:53:18;;;;;;;;;;;10.30;99.90;;;;;;5045036;28;19936;-74
2022/10/03 06:55:49;;;;;;;;;;;10.30;99.90;;;;;;5045231;28;19921;-73
2022/10/03 06:58:34;;;;;;;;;;;10.30;99.90;;;;;;5045238;28;19921;-74
2022/10/03 07:01:14;;;;;;;;;;;10.30;99.90;;;;;;5026120;28;19921;-74
2022/10/03 07:03:53;;;;;;;;;;;10.30;99.90;;;;;;5025536;28;19928;-74
2022/10/03 07:06:28;;;;;;;;;;;10.30;99.90;;;;;;5044712;28;20004;-74
2022/10/03 07:09:22;;;;;;;;;;;10.40;99.90;;;;;;5045144;28;19952;-74
2022/10/03 07:12:05;;;;;;;;;;;10.40;99.90;;;;;;4998804;28;19929;-74
2022/10/03 07:14:47;;;;;;;;;;;10.40;99.90;;;;;;5042819;28;19941;-73
2022/10/03 07:17:28;;;;;;;;;;;10.40;99.90;;;;;;5045542;28;19921;-72
2022/10/03 07:20:13;;;;;;;;;;;10.40;99.90;;;;;;5002323;28;20197;-70
2022/10/03 07:23:05;;;;;;;;;;;10.50;99.90;;;;;;5045496;28;19921;-70
2022/10/03 07:25:59;;;;;;;;;;;10.50;99.90;;;;;;5045047;28;19967;-70
2022/10/03 07:28:42;;;;;;;;;;;10.60;99.90;;;;;;5025257;28;19921;-70
2022/10/03 07:31:14;;;;;;;;;;;10.70;99.90;;;;;;5034817;28;20135;-71
2022/10/03 07:34:10;;;;;;;;;;;10.70;99.90;;;;;;5029257;28;20112;-71
2022/10/03 07:39:55;;;;;;;;;;;10.80;99.90;;;;;;5045023;28;19956;-69
2022/10/03 07:42:41;;;;;;;;;;;10.80;99.90;;;;;;5045253;28;19987;-71
2022/10/03 07:45:29;;;;;;;;;;;10.80;99.90;;;;;;5044346;28;19960;-72
2022/10/03 07:48:23;;;;;;;;;;;10.80;99.90;;;;;;5043130;28;20109;-72
2022/10/03 07:51:04;;;;;;;;;;;10.90;99.90;;;;;;5044435;28;19959;-72
2022/10/03 07:53:49;;;;;;;;;;;10.90;99.90;;;;;;5041173;28;19922;-72
2022/10/03 07:56:28;;;;;;;;;;;10.90;99.90;;;;;;5043988;28;20093;-72
2022/10/03 07:58:59;;;;;;;;;;;11.00;99.90;;;;;;5044219;28;20263;-71
2022/10/03 08:01:35;;;;;;;;;;;11.00;99.90;;;;;;5044790;28;19988;-72
2022/10/03 08:04:22;;;;;;;;;;;11.00;99.90;;;;;;5043643;28;20276;-72
2022/10/03 08:06:51;;;;;;;;;;;11.00;99.90;;;;;;5043667;28;19992;-72
2022/10/03 08:09:37;;;;;;;;;;;11.10;99.90;;;;;;5024233;28;19922;-72
2022/10/03 08:12:22;;;;;;;;;;;11.10;99.90;;;;;;5027210;28;19921;-72
2022/10/03 08:14:57;;;;;;;;;;;11.10;99.90;;;;;;5043635;28;19952;-72
2022/10/03 08:17:45;;;;;;;;;;;11.20;99.90;;;;;;5043759;28;20280;-72
2022/10/03 08:20:30;;;;;;;;;;;11.20;99.90;;;;;;5044338;28;19927;-73
2022/10/03 08:23:04;;;;;;;;;;;11.20;99.90;;;;;;5043799;28;20276;-72
2022/10/03 08:25:42;;;;;;;;;;;11.30;99.90;;;;;;5043413;28;20163;-72
2022/10/03 08:28:30;;;;;;;;;;;11.30;99.90;;;;;;5043483;28;19984;-72
2022/10/03 08:31:24;;;;;;;;;;;11.30;99.90;;;;;;5042557;28;19929;-71
2022/10/03 08:33:59;;;;;;;;;;;11.30;99.90;;;;;;5000289;28;19922;-71
2022/10/03 08:36:34;;;;;;;;;;;11.30;99.90;;;;;;5042206;28;19988;-71
2022/10/03 08:39:11;;;;;;;;;;;11.30;99.90;;;;;;5043455;28;19925;-72
2022/10/03 08:41:59;;;;;;;;;;;11.40;99.90;;;;;;5037809;28;20171;-72
2022/10/03 08:44:36;;;;;;;;;;;11.40;99.90;;;;;;5032363;28;19983;-72
2022/10/03 08:47:12;;;;;;;;;;;11.40;99.90;;;;;;5043081;28;19921;-73
2022/10/03 08:49:58;;;;;;;;;;;11.40;99.90;;;;;;5042815;28;20159;-71
2022/10/03 08:52:29;;;;;;;;;;;11.40;99.90;;;;;;5043291;28;19921;-71
2022/10/03 08:55:11;;;;;;;;;;;11.50;99.90;;;;;;5043580;28;19921;-72
2022/10/03 08:58:04;;;;;;;;;;;11.60;99.90;;;;;;5043686;28;19921;-72
2022/10/03 09:00:40;;;;;;;;;;;11.70;99.90;;;;;;5023740;28;19928;-72
2022/10/03 09:03:30;;;;;;;;;;;11.70;99.90;;;;;;5037388;28;19989;-72
2022/10/03 09:06:23;;;;;;;;;;;11.80;99.90;;;;;;5043233;28;19959;-71
2022/10/03 09:08:57;;;;;;;;;;;11.80;99.90;;;;;;5043113;28;19921;-72
2022/10/03 09:11:51;;;;;;;;;;;11.90;99.90;;;;;;5043217;28;20255;-72
2022/10/03 09:14:30;;;;;;;;;;;11.90;99.90;;;;;;5007599;28;19996;-72
2022/10/03 09:17:11;;;;;;;;;;;11.90;99.90;;;;;;5042846;28;20230;-72
2022/10/03 09:19:51;;;;;;;;;;;12.00;99.90;;;;;;5042831;28;19927;-72
2022/10/03 09:22:31;;;;;;;;;;;12.00;99.90;;;;;;5043120;28;19959;-72
2022/10/03 09:25:11;;;;;;;;;;;12.00;99.90;;;;;;5042497;28;19944;-72
2022/10/03 09:27:53;;;;;;;;;;;12.10;99.90;;;;;;5043197;28;19925;-72
2022/10/03 09:30:22;;;;;;;;;;;12.10;99.90;;;;;;5040592;28;19927;-72
2022/10/03 09:33:00;;;;;;;;;;;12.20;99.90;;;;;;5039829;28;19925;-71
2022/10/03 09:35:53;;;;;;;;;;;12.40;99.90;;;;;;5038979;28;20204;-72
2022/10/03 09:38:41;;;;;;;;;;;12.50;99.90;;;;;;5038399;28;19951;-72
2022/10/03 09:41:29;;;;;;;;;;;12.60;99.90;;;;;;5027987;28;19953;-72
2022/10/03 09:44:14;;;;;;;;;;;12.60;99.90;;;;;;5037381;28;19988;-72
2022/10/03 09:47:21;;;;;;;;;;;12.70;99.90;;;;;;5029282;28;20111;-71
2022/10/03 09:49:54;;;;;;;;;;;12.70;99.90;;;;;;5042137;28;20212;-72
2022/10/03 09:52:26;;;;;;;;;;;12.80;99.90;;;;;;5002630;28;19928;-72
2022/10/03 09:55:03;;;;;;;;;;;13.00;99.90;;;;;;5042492;28;20123;-72
2022/10/03 09:57:49;;;;;;;;;;;13.10;99.90;;;;;;5042567;28;19984;-72
2022/10/03 10:00:17;;;;;;;;;;;13.30;99.90;;;;;;5042795;28;19921;-72
2022/10/03 10:02:58;;;;;;;;;;;13.40;99.90;;;;;;5042492;28;19929;-72
2022/10/03 10:05:46;;;;;;;;;;;13.50;99.90;;;;;;5039144;28;19927;-71
2022/10/03 10:08:25;;;;;;;;;;;13.60;99.90;;;;;;5042669;28;19927;-71
2022/10/03 10:11:07;;;;;;;;;;;13.60;99.90;;;;;;5043992;28;19927;-72
2022/10/03 10:13:48;;;;;;;;;;;13.60;99.90;;;;;;5046318;28;19929;-72
2022/10/03 10:16:24;;;;;;;;;;;13.60;99.90;;;;;;5043849;28;19927;-72
2022/10/03 10:19:09;;;;;;;;;;;13.60;99.90;;;;;;5026996;28;19922;-72
2022/10/03 10:21:48;;;;;;;;;;;13.60;99.90;;;;;;5019522;28;20196;-71
2022/10/03 10:24:35;;;;;;;;;;;13.80;99.90;;;;;;5077282;22;19921;-74
2022/10/03 10:27:27;;;;;;;;;;;14.00;99.90;;;;;;5065564;28;20253;-74
2022/10/03 10:30:03;;;;;;;;;;;14.00;99.90;;;;;;5066089;28;20194;-73
2022/10/03 10:33:02;;;;;;;;;;;14.00;99.90;;;;;;5065512;28;19959;-75
2022/10/03 10:35:40;;;;;;;;;;;13.90;99.90;;;;;;5045573;28;19984;-75
2022/10/03 10:38:24;;;;;;;;;;;13.80;99.90;;;;;;5045486;28;19936;-74
2022/10/03 10:41:09;;;;;;;;;;;13.70;99.90;;;;;;5045844;28;19921;-75
2022/10/03 10:44:08;;;;;;;;;;;13.70;99.90;;;;;;5045458;28;19921;-74
2022/10/03 10:46:53;;;;;;;;;;;13.80;99.90;;;;;;5044579;28;19920;-75
2022/10/03 10:49:50;;;;;;;;;;;14.10;99.90;;;;;;5045526;28;19925;-74
2022/10/03 10:52:31;;;;;;;;;;;14.30;99.90;;;;;;5045498;28;19992;-74
2022/10/03 10:55:37;;;;;;;;;;;14.30;99.90;;;;;;5044657;28;19921;-74
2022/10/03 10:58:34;;;;;;;;;;;14.20;99.90;;;;;;5045262;28;20185;-74
2022/10/03 11:01:18;;;;;;;;;;;14.10;99.90;;;;;;5045251;28;20159;-75
2022/10/03 11:04:01;;;;;;;;;;;14.00;99.90;;;;;;5045050;28;19928;-74
2022/10/03 11:06:52;;;;;;;;;;;13.90;99.90;;;;;;5045436;28;20085;-74
2022/10/03 11:09:45;;;;;;;;;;;13.80;99.90;;;;;;5045057;28;20518;-74
2022/10/03 11:12:31;;;;;;;;;;;13.70;99.90;;;;;;5045167;28;19928;-72
2022/10/03 11:15:27;;;;;;;;;;;13.70;99.90;;;;;;5044546;28;20090;-73
2022/10/03 11:18:09;;;;;;;;;;;13.90;99.90;;;;;;5044603;28;20205;-73
2022/10/03 11:20:54;;;;;;;;;;;14.20;99.90;;;;;;5045280;28;19921;-74
2022/10/03 11:23:41;;;;;;;;;;;14.40;99.90;;;;;;5042972;28;19928;-73
2022/10/03 11:26:29;;;;;;;;;;;14.50;99.90;;;;;;5042828;28;19944;-73
2022/10/03 11:29:09;;;;;;;;;;;14.50;99.90;;;;;;5024851;28;20212;-73
2022/10/03 11:31:51;;;;;;;;;;;14.40;99.90;;;;;;5043841;28;20204;-73
2022/10/03 11:34:35;;;;;;;;;;;14.30;99.90;;;;;;5044254;28;20004;-74
2022/10/03 11:37:05;;;;;;;;;;;14.20;99.90;;;;;;5042213;28;19960;-74
2022/10/03 11:39:38;;;;;;;;;;;14.20;99.90;;;;;;5044491;28;20187;-73
2022/10/03 11:42:11;;;;;;;;;;;14.20;99.90;;;;;;5044253;28;20200;-73
2022/10/03 11:44:42;;;;;;;;;;;14.10;99.90;;;;;;5044002;28;19984;-73
2022/10/03 11:47:19;;;;;;;;;;;14.20;99.90;;;;;;5044207;28;19928;-73
2022/10/03 11:50:07;;;;;;;;;;;14.20;99.90;;;;;;5044613;28;19945;-74
2022/10/03 11:52:41;;;;;;;;;;;14.30;99.90;;;;;;5037109;28;19927;-73
2022/10/03 11:55:20;;;;;;;;;;;14.40;99.90;;;;;;5042074;28;19984;-72
2022/10/03 11:57:53;;;;;;;;;;;14.50;99.90;;;;;;5042889;28;19984;-73
2022/10/03 12:00:22;;;;;;;;;;;14.40;99.90;;;;;;5044158;28;19984;-73
2022/10/03 12:02:59;;;;;;;;;;;14.40;99.90;;;;;;5043933;28;19921;-73
2022/10/03 12:05:28;;;;;;;;;;;14.40;99.90;;;;;;5043476;28;19943;-73
2022/10/03 12:10:56;;;;;;;;;;;14.30;99.90;;;;;;5044154;28;19959;-74
2022/10/03 12:13:29;;;;;;;;;;;14.30;99.90;;;;;;5043933;28;19921;-74
2022/10/03 12:15:57;;;;;;;;;;;14.30;99.90;;;;;;5043041;28;19991;-73
2022/10/03 12:18:33;;;;;;;;;;;14.30;99.90;;;;;;5044151;28;19927;-74
2022/10/03 12:21:08;;;;;;;;;;;14.40;99.90;;;;;;5043815;28;20124;-72
2022/10/03 12:23:46;;;;;;;;;;;14.40;99.90;;;;;;5043798;28;19921;-73
2022/10/03 12:26:15;;;;;;;;;;;14.50;99.90;;;;;;5042925;28;20035;-73
2022/10/03 12:28:45;;;;;;;;;;;14.40;99.90;;;;;;5043723;28;19988;-76
2022/10/03 12:31:15;;;;;;;;;;;14.50;99.90;;;;;;5042045;28;19929;-72
2022/10/03 12:33:48;;;;;;;;;;;14.60;99.90;;;;;;5042600;28;19927;-72
2022/10/03 12:36:16;;;;;;;;;;;14.80;99.90;;;;;;5042574;28;19921;-74
2022/10/03 12:38:53;;;;;;;;;;;15.00;99.90;;;;;;5043142;28;20212;-74
2022/10/03 12:41:25;;;;;;;;;;;15.20;99.90;;;;;;5043429;28;19928;-72
2022/10/03 12:44:03;;;;;;;;;;;15.40;99.90;;;;;;5043427;28;20016;-74
2022/10/03 12:46:33;;;;;;;;;;;15.30;99.90;;;;;;5043023;28;20280;-73
2022/10/03 12:49:03;;;;;;;;;;;15.30;99.90;;;;;;5042928;28;19925;-73
2022/10/03 12:51:39;;;;;;;;;;;15.20;99.90;;;;;;5043314;28;20283;-74
2022/10/03 12:54:15;;;;;;;;;;;15.10;99.90;;;;;;5043318;28;19992;-74
2022/10/03 12:56:45;;;;;;;;;;;15.00;99.90;;;;;;5042954;28;19959;-73
2022/10/03 12:59:22;;;;;;;;;;;14.90;99.90;;;;;;5043138;28;19967;-73
2022/10/03 13:02:01;;;;;;;;;;;14.80;99.90;;;;;;5043204;28;19967;-73
2022/10/03 13:04:33;;;;;;;;;;;14.70;99.90;;;;;;5043145;28;19928;-74
2022/10/03 13:07:09;;;;;;;;;;;14.60;99.90;;;;;;5042966;28;19921;-74
2022/10/03 13:09:47;;;;;;;;;;;14.60;99.90;;;;;;5042891;28;19921;-74
2022/10/03 13:12:22;;;;;;;;;;;14.40;99.90;;;;;;5042990;28;19924;-73
2022/10/03 13:15:08;;;;;;;;;;;14.40;99.90;;;;;;5041493;28;19921;-73
2022/10/03 13:17:38;;;;;;;;;;;14.40;99.90;;;;;;5043098;28;19948;-73
2022/10/03 13:20:09;;;;;;;;;;;14.50;99.90;;;;;;5042750;28;19928;-73
2022/10/03 13:22:42;;;;;;;;;;;14.70;99.90;;;;;;5042838;28;19984;-73
2022/10/03 13:25:15;;;;;;;;;;;14.80;99.90;;;;;;5042736;28;19968;-73
2022/10/03 13:27:45;;;;;;;;;;;14.90;99.90;;;;;;5042715;28;19925;-73
2022/10/03 13:30:20;;;;;;;;;;;15.10;99.90;;;;;;5035588;28;19929;-73
2022/10/03 13:32:50;;;;;;;;;;;15.10;99.90;;;;;;5033309;28;19921;-74
2022/10/03 13:38:26;;;;;;;;;;;15.10;99.90;;;;;;5038679;28;19955;-74
2022/10/03 13:41:00;;;;;;;;;;;15.00;99.90;;;;;;5040276;28;20151;-72
2022/10/03 13:43:33;;;;;;;;;;;14.90;99.90;;;;;;5041954;28;20228;-72
2022/10/03 13:46:01;;;;;;;;;;;14.80;99.90;;;;;;5043661;28;19921;-71
2022/10/03 13:48:28;;;;;;;;;;;14.80;99.90;;;;;;5045132;28;20208;-71
2022/10/03 13:50:58;;;;;;;;;;;14.70;99.90;;;;;;5045303;28;19921;-72
2022/10/03 13:53:31;;;;;;;;;;;14.70;99.90;;;;;;5046511;28;19928;-72
2022/10/03 13:56:03;;;;;;;;;;;14.70;99.90;;;;;;5045808;28;19963;-72
2022/10/03 13:58:34;;;;;;;;;;;14.70;99.90;;;;;;5044044;28;19959;-71
2022/10/03 14:01:14;;;;;;;;;;;14.70;99.90;;;;;;5045137;28;19967;-71
2022/10/03 14:03:47;;;;;;;;;;;14.70;99.90;;;;;;5045661;28;19921;-73
2022/10/03 14:06:17;;;;;;;;;;;14.70;99.90;;;;;;5042497;28;19925;-72
2022/10/03 14:09:01;;;;;;;;;;;14.60;99.90;;;;;;5041562;28;19935;-73
2022/10/03 14:11:34;;;;;;;;;;;14.60;99.90;;;;;;5012666;28;19921;-72
2022/10/03 14:14:18;;;;;;;;;;;14.60;99.90;;;;;;5045380;28;19932;-71
2022/10/03 14:16:49;;;;;;;;;;;14.60;99.90;;;;;;5042781;28;19922;-71
2022/10/03 14:19:19;;;;;;;;;;;14.50;99.90;;;;;;5044674;28;19927;-73
2022/10/03 14:21:52;;;;;;;;;;;14.50;99.90;;;;;;5045338;28;19921;-73
2022/10/03 14:24:34;;;;;;;;;;;14.50;99.90;;;;;;5045152;28;19921;-72
2022/10/03 14:27:05;;;;;;;;;;;14.50;99.90;;;;;;5044367;28;20246;-72
2022/10/03 14:29:36;;;;;;;;;;;14.50;99.90;;;;;;5044962;28;19932;-72
2022/10/03 14:32:08;;;;;;;;;;;14.50;99.90;;;;;;5042711;28;19929;-73
2022/10/03 14:34:45;;;;;;;;;;;14.50;99.90;;;;;;5044522;28;19967;-72
2022/10/03 14:37:21;;;;;;;;;;;14.60;99.90;;;;;;5044516;28;19984;-74
2022/10/03 14:39:53;;;;;;;;;;;14.60;99.90;;;;;;5043187;28;19929;-73
2022/10/03 14:42:30;;;;;;;;;;;14.50;99.90;;;;;;5039823;28;19921;-73
2022/10/03 14:44:58;;;;;;;;;;;14.50;99.90;;;;;;5044387;28;20164;-73
2022/10/03 14:47:25;;;;;;;;;;;14.50;99.90;;;;;;5044644;28;20104;-74
2022/10/03 14:49:54;;;;;;;;;;;14.50;99.90;;;;;;5044479;28;19925;-74
2022/10/03 14:52:25;;;;;;;;;;;14.50;99.90;;;;;;5042558;28;19929;-73
2022/10/03 14:54:54;;;;;;;;;;;14.50;99.90;;;;;;5044075;28;19975;-73
2022/10/03 14:57:24;;;;;;;;;;;14.50;99.90;;;;;;5034513;28;19921;-73
2022/10/03 14:59:56;;;;;;;;;;;14.50;99.90;;;;;;5043866;28;20275;-73
2022/10/03 15:02:26;;;;;;;;;;;14.50;99.90;;;;;;5036745;28;19927;-74
2022/10/03 15:04:55;;;;;;;;;;;14.50;99.90;;;;;;5043850;28;19984;-73
2022/10/03 15:07:32;;;;;;;;;;;14.50;99.90;;;;;;5039034;28;19928;-74
2022/10/03 15:09:59;;;;;;;;;;;14.50;99.90;;;;;;5043867;28;19921;-73
2022/10/03 15:12:27;;;;;;;;;;;14.50;99.90;;;;;;5041345;28;19921;-73
2022/10/03 15:14:57;;;;;;;;;;;14.50;99.90;;;;;;5043275;28;19936;-73
2022/10/03 15:17:27;;;;;;;;;;;14.50;99.90;;;;;;5044437;28;19992;-73
2022/10/03 15:19:54;;;;;;;;;;;14.50;99.90;;;;;;5041170;28;19936;-73
2022/10/03 15:22:25;;;;;;;;;;;14.40;99.90;;;;;;5041415;28;19921;-73
2022/10/03 15:24:53;;;;;;;;;;;14.40;99.90;;;;;;5043129;28;20219;-71
2022/10/03 15:27:21;;;;;;;;;;;14.30;99.90;;;;;;5038653;28;19928;-72
2022/10/03 15:29:51;;;;;;;;;;;14.30;99.90;;;;;;5040661;28;19992;-73